TUA128 UTAM-UTAA
Flight info
| Callsign | TUA128 |
|---|---|
| Flight time | 0h 39m |
| Altitude | 22000 |
| Route | NINOP A125 ASB |
| Aircraft | B737/M-SDE2E3FGHIRWXY/LB1 |
Departure
| Time | 2026-04-23 13:15 |
|---|---|
| Airport | Mary International Airport (UTAM) |
Arrival
| Time | 2026-04-23 13:54 |
|---|---|
| Airport | Ashgabat International Airport (UTAA) |
| Time | Latitude | Longitude | Altitude | Speed | Heading |
|---|---|---|---|---|---|
| 2026-04-23 13:07 | 37.60890 | 61.90043 | 736 ft | 0 kts | 307° |
| 2026-04-23 13:13 | 37.60891 | 61.90032 | 735 ft | 7 kts | 273° |
| 2026-04-23 13:13 | 37.60820 | 61.89993 | 736 ft | 13 kts | 179° |
| 2026-04-23 13:14 | 37.60744 | 61.89960 | 736 ft | 13 kts | 256° |
| 2026-04-23 13:14 | 37.60746 | 61.89860 | 735 ft | 11 kts | 271° |
| 2026-04-23 13:14 | 37.60789 | 61.89801 | 734 ft | 10 kts | 354° |
| 2026-04-23 13:14 | 37.60917 | 61.89798 | 735 ft | 47 kts | 358° |
| 2026-04-23 13:15 | 37.61500 | 61.89779 | 739 ft | 119 kts | 358° |
| 2026-04-23 13:15 | 37.62513 | 61.89739 | 837 ft | 163 kts | 0° |
| 2026-04-23 13:15 | 37.63646 | 61.89713 | 1586 ft | 160 kts | 3° |
| 2026-04-23 13:15 | 37.64746 | 61.89571 | 2336 ft | 163 kts | 351° |
| 2026-04-23 13:16 | 37.65910 | 61.89122 | 2726 ft | 189 kts | 340° |
| 2026-04-23 13:16 | 37.67168 | 61.88290 | 3014 ft | 220 kts | 328° |
| 2026-04-23 13:16 | 37.68428 | 61.86997 | 3230 ft | 248 kts | 315° |
| 2026-04-23 13:16 | 37.69511 | 61.85209 | 3503 ft | 269 kts | 298° |
| 2026-04-23 13:17 | 37.70183 | 61.83015 | 4415 ft | 265 kts | 280° |
| 2026-04-23 13:17 | 37.70375 | 61.80745 | 5497 ft | 260 kts | 269° |
| 2026-04-23 13:17 | 37.70306 | 61.78439 | 6326 ft | 266 kts | 266° |
| 2026-04-23 13:17 | 37.70196 | 61.76091 | 7226 ft | 269 kts | 266° |
| 2026-04-23 13:18 | 37.70091 | 61.73734 | 8216 ft | 269 kts | 266° |
| 2026-04-23 13:18 | 37.69998 | 61.71366 | 9246 ft | 271 kts | 267° |
| 2026-04-23 13:18 | 37.69917 | 61.68985 | 10220 ft | 273 kts | 267° |
| 2026-04-23 13:18 | 37.69841 | 61.66499 | 10643 ft | 297 kts | 268° |
| 2026-04-23 13:19 | 37.69765 | 61.63774 | 10954 ft | 321 kts | 268° |
| 2026-04-23 13:19 | 37.69690 | 61.60918 | 11693 ft | 328 kts | 268° |
| 2026-04-23 13:19 | 37.69618 | 61.58024 | 12616 ft | 330 kts | 268° |
| 2026-04-23 13:19 | 37.69548 | 61.55113 | 13545 ft | 333 kts | 268° |
| 2026-04-23 13:20 | 37.69477 | 61.52168 | 14392 ft | 337 kts | 268° |
| 2026-04-23 13:20 | 37.69405 | 61.49188 | 15274 ft | 340 kts | 268° |
| 2026-04-23 13:20 | 37.69333 | 61.46233 | 16178 ft | 342 kts | 268° |
| 2026-04-23 13:20 | 37.69259 | 61.43210 | 17060 ft | 346 kts | 268° |
| 2026-04-23 13:21 | 37.69184 | 61.40158 | 17941 ft | 349 kts | 268° |
| 2026-04-23 13:21 | 37.69108 | 61.37083 | 18820 ft | 349 kts | 268° |
| 2026-04-23 13:21 | 37.69031 | 61.34040 | 19837 ft | 344 kts | 267° |
| 2026-04-23 13:21 | 37.68956 | 61.31037 | 20862 ft | 340 kts | 267° |
| 2026-04-23 13:22 | 37.68879 | 61.28044 | 21585 ft | 341 kts | 267° |
| 2026-04-23 13:22 | 37.68802 | 61.25073 | 21914 ft | 339 kts | 267° |
| 2026-04-23 13:22 | 37.68731 | 61.22116 | 21916 ft | 343 kts | 269° |
| 2026-04-23 13:22 | 37.68857 | 61.19123 | 21934 ft | 341 kts | 274° |
| 2026-04-23 13:23 | 37.69133 | 61.16152 | 21940 ft | 341 kts | 276° |
| 2026-04-23 13:23 | 37.69448 | 61.13189 | 21936 ft | 341 kts | 276° |
| 2026-04-23 13:23 | 37.69762 | 61.10222 | 21936 ft | 341 kts | 276° |
| 2026-04-23 13:23 | 37.70066 | 61.07260 | 21935 ft | 341 kts | 276° |
| 2026-04-23 13:24 | 37.70360 | 61.04287 | 21932 ft | 341 kts | 275° |
| 2026-04-23 13:24 | 37.70645 | 61.01315 | 21927 ft | 341 kts | 275° |
| 2026-04-23 13:24 | 37.70926 | 60.98334 | 21928 ft | 342 kts | 275° |
| 2026-04-23 13:24 | 37.71204 | 60.95345 | 21930 ft | 342 kts | 275° |
| 2026-04-23 13:25 | 37.71479 | 60.92352 | 21931 ft | 343 kts | 275° |
| 2026-04-23 13:25 | 37.71754 | 60.89357 | 21931 ft | 343 kts | 275° |
| 2026-04-23 13:25 | 37.72028 | 60.86355 | 21928 ft | 344 kts | 275° |
| 2026-04-23 13:25 | 37.72301 | 60.83355 | 21927 ft | 344 kts | 275° |
| 2026-04-23 13:26 | 37.72569 | 60.80393 | 21923 ft | 344 kts | 275° |
| 2026-04-23 13:26 | 37.72841 | 60.77391 | 21921 ft | 344 kts | 275° |
| 2026-04-23 13:26 | 37.73111 | 60.74391 | 21936 ft | 344 kts | 275° |
| 2026-04-23 13:26 | 37.73381 | 60.71393 | 21926 ft | 344 kts | 275° |
| 2026-04-23 13:27 | 37.73650 | 60.68395 | 21921 ft | 343 kts | 275° |
| 2026-04-23 13:27 | 37.73917 | 60.65402 | 21919 ft | 343 kts | 275° |
| 2026-04-23 13:27 | 37.74183 | 60.62417 | 21917 ft | 342 kts | 275° |
| 2026-04-23 13:27 | 37.74450 | 60.59430 | 21917 ft | 342 kts | 275° |
| 2026-04-23 13:28 | 37.74714 | 60.56442 | 21917 ft | 342 kts | 275° |
| 2026-04-23 13:28 | 37.74977 | 60.53463 | 21918 ft | 341 kts | 275° |
| 2026-04-23 13:28 | 37.75284 | 60.50488 | 21916 ft | 342 kts | 277° |
| 2026-04-23 13:28 | 37.75648 | 60.47517 | 21915 ft | 342 kts | 277° |
| 2026-04-23 13:29 | 37.76028 | 60.44552 | 21904 ft | 342 kts | 278° |
| 2026-04-23 13:29 | 37.76410 | 60.41577 | 21915 ft | 343 kts | 277° |
| 2026-04-23 13:29 | 37.76787 | 60.38606 | 21917 ft | 343 kts | 277° |
| 2026-04-23 13:29 | 37.77162 | 60.35616 | 21916 ft | 344 kts | 277° |
| 2026-04-23 13:30 | 37.77534 | 60.32628 | 21917 ft | 344 kts | 277° |
| 2026-04-23 13:30 | 37.77899 | 60.29673 | 21919 ft | 345 kts | 277° |
| 2026-04-23 13:30 | 37.78267 | 60.26671 | 21912 ft | 345 kts | 277° |
| 2026-04-23 13:30 | 37.78635 | 60.23668 | 21912 ft | 345 kts | 277° |
| 2026-04-23 13:31 | 37.78999 | 60.20677 | 21931 ft | 345 kts | 277° |
| 2026-04-23 13:31 | 37.79363 | 60.17681 | 21918 ft | 344 kts | 277° |
| 2026-04-23 13:31 | 37.79726 | 60.14684 | 21903 ft | 344 kts | 277° |
| 2026-04-23 13:31 | 37.80088 | 60.11695 | 21907 ft | 343 kts | 277° |
| 2026-04-23 13:32 | 37.80448 | 60.08709 | 21913 ft | 343 kts | 277° |
| 2026-04-23 13:32 | 37.80806 | 60.05732 | 21907 ft | 343 kts | 277° |
| 2026-04-23 13:32 | 37.81164 | 60.02751 | 21907 ft | 343 kts | 277° |
| 2026-04-23 13:32 | 37.81522 | 59.99768 | 21907 ft | 343 kts | 277° |
| 2026-04-23 13:33 | 37.81878 | 59.96789 | 21906 ft | 343 kts | 277° |
| 2026-04-23 13:33 | 37.82233 | 59.93809 | 21908 ft | 343 kts | 277° |
| 2026-04-23 13:33 | 37.82589 | 59.90823 | 21908 ft | 343 kts | 277° |
| 2026-04-23 13:33 | 37.82938 | 59.87880 | 21901 ft | 343 kts | 277° |
| 2026-04-23 13:34 | 37.83293 | 59.84888 | 21902 ft | 344 kts | 277° |
| 2026-04-23 13:34 | 37.83648 | 59.81881 | 21906 ft | 344 kts | 277° |
| 2026-04-23 13:34 | 37.84002 | 59.78882 | 21906 ft | 345 kts | 277° |
| 2026-04-23 13:34 | 37.84355 | 59.75881 | 21906 ft | 345 kts | 277° |
| 2026-04-23 13:35 | 37.84709 | 59.72870 | 21903 ft | 345 kts | 277° |
| 2026-04-23 13:35 | 37.85057 | 59.69903 | 21914 ft | 345 kts | 277° |
| 2026-04-23 13:35 | 37.85412 | 59.66861 | 21909 ft | 345 kts | 277° |
| 2026-04-23 13:35 | 37.85763 | 59.63852 | 21902 ft | 345 kts | 277° |
| 2026-04-23 13:36 | 37.86108 | 59.60887 | 21898 ft | 345 kts | 277° |
| 2026-04-23 13:36 | 37.86457 | 59.57885 | 21894 ft | 345 kts | 277° |
| 2026-04-23 13:36 | 37.86805 | 59.54882 | 21900 ft | 345 kts | 277° |
| 2026-04-23 13:36 | 37.87152 | 59.51879 | 21902 ft | 344 kts | 277° |
| 2026-04-23 13:37 | 37.87499 | 59.48875 | 21900 ft | 344 kts | 277° |
| 2026-04-23 13:37 | 37.87844 | 59.45874 | 21895 ft | 344 kts | 277° |
| 2026-04-23 13:37 | 37.88189 | 59.42876 | 21896 ft | 344 kts | 277° |
| 2026-04-23 13:37 | 37.88529 | 59.39911 | 21884 ft | 337 kts | 277° |
| 2026-04-23 13:38 | 37.89044 | 59.35413 | 21874 ft | 327 kts | 277° |
| 2026-04-23 13:38 | 37.90515 | 59.27909 | 20313 ft | 319 kts | 284° |
| 2026-04-23 13:38 | 37.92493 | 59.19407 | 18708 ft | 318 kts | 284° |
| 2026-04-23 13:38 | 37.93103 | 59.16733 | 18226 ft | 320 kts | 284° |
| 2026-04-23 13:39 | 37.93715 | 59.14013 | 17711 ft | 320 kts | 284° |
| 2026-04-23 13:39 | 37.94319 | 59.11305 | 17234 ft | 319 kts | 284° |
| 2026-04-23 13:39 | 37.94917 | 59.08612 | 16757 ft | 317 kts | 284° |
| 2026-04-23 13:39 | 37.95509 | 59.05930 | 16298 ft | 315 kts | 284° |
| 2026-04-23 13:40 | 37.96096 | 59.03264 | 15851 ft | 313 kts | 284° |
| 2026-04-23 13:40 | 37.96680 | 59.00609 | 15396 ft | 312 kts | 284° |
| 2026-04-23 13:40 | 37.97262 | 58.97957 | 14942 ft | 311 kts | 284° |
| 2026-04-23 13:40 | 37.97839 | 58.95321 | 14499 ft | 310 kts | 284° |
| 2026-04-23 13:41 | 37.98414 | 58.92691 | 14053 ft | 309 kts | 284° |
| 2026-04-23 13:41 | 37.98988 | 58.90065 | 13585 ft | 309 kts | 284° |
| 2026-04-23 13:41 | 37.99559 | 58.87449 | 13089 ft | 308 kts | 284° |
| 2026-04-23 13:41 | 38.00127 | 58.84843 | 12621 ft | 306 kts | 283° |
| 2026-04-23 13:42 | 38.00684 | 58.82285 | 12174 ft | 304 kts | 283° |
| 2026-04-23 13:42 | 38.01244 | 58.79710 | 11722 ft | 302 kts | 283° |
| 2026-04-23 13:42 | 38.01802 | 58.77145 | 11273 ft | 300 kts | 283° |
| 2026-04-23 13:42 | 38.02355 | 58.74594 | 10825 ft | 299 kts | 283° |
| 2026-04-23 13:43 | 38.02905 | 58.72056 | 10382 ft | 297 kts | 283° |
| 2026-04-23 13:43 | 38.03444 | 58.69568 | 10199 ft | 288 kts | 283° |
| 2026-04-23 13:43 | 38.03972 | 58.67125 | 10056 ft | 286 kts | 282° |
| 2026-04-23 13:43 | 38.04506 | 58.64649 | 9719 ft | 295 kts | 282° |
| 2026-04-23 13:44 | 38.05051 | 58.62115 | 9315 ft | 299 kts | 282° |
| 2026-04-23 13:44 | 38.05598 | 58.59574 | 8894 ft | 297 kts | 283° |
| 2026-04-23 13:44 | 38.06140 | 58.57060 | 8491 ft | 293 kts | 282° |
| 2026-04-23 13:44 | 38.06673 | 58.54580 | 8091 ft | 290 kts | 283° |
| 2026-04-23 13:45 | 38.07024 | 58.52949 | 7833 ft | 288 kts | 283° |
| 2026-04-23 13:45 | 38.07727 | 58.49676 | 7308 ft | 285 kts | 283° |
| 2026-04-23 13:45 | 38.08234 | 58.47315 | 6920 ft | 277 kts | 283° |
| 2026-04-23 13:45 | 38.08732 | 58.44992 | 6560 ft | 268 kts | 283° |
| 2026-04-23 13:46 | 38.09174 | 58.42748 | 6136 ft | 256 kts | 280° |
| 2026-04-23 13:46 | 38.09484 | 58.40569 | 5731 ft | 248 kts | 277° |
| 2026-04-23 13:46 | 38.09763 | 58.38415 | 5392 ft | 246 kts | 277° |
| 2026-04-23 13:46 | 38.10042 | 58.36268 | 5077 ft | 246 kts | 278° |
| 2026-04-23 13:47 | 38.10324 | 58.34126 | 4758 ft | 244 kts | 278° |
| 2026-04-23 13:47 | 38.10600 | 58.32042 | 4630 ft | 237 kts | 279° |
| 2026-04-23 13:47 | 38.10878 | 58.29973 | 4513 ft | 239 kts | 278° |
| 2026-04-23 13:47 | 38.11160 | 58.27889 | 4429 ft | 239 kts | 278° |
| 2026-04-23 13:48 | 38.11442 | 58.25806 | 4311 ft | 239 kts | 278° |
| 2026-04-23 13:48 | 38.11722 | 58.23727 | 4216 ft | 237 kts | 277° |
| 2026-04-23 13:48 | 38.12003 | 58.21647 | 3973 ft | 240 kts | 278° |
| 2026-04-23 13:48 | 38.12178 | 58.19599 | 3698 ft | 230 kts | 260° |
| 2026-04-23 13:49 | 38.11502 | 58.17959 | 3484 ft | 199 kts | 211° |
| 2026-04-23 13:49 | 38.10279 | 58.17564 | 3277 ft | 178 kts | 167° |
| 2026-04-23 13:49 | 38.09067 | 58.17872 | 3120 ft | 181 kts | 165° |
| 2026-04-23 13:49 | 38.07824 | 58.18174 | 2895 ft | 182 kts | 166° |
| 2026-04-23 13:50 | 38.06575 | 58.18460 | 2666 ft | 183 kts | 164° |
| 2026-04-23 13:50 | 38.05503 | 58.19196 | 2522 ft | 174 kts | 124° |
| 2026-04-23 13:50 | 38.04859 | 58.20479 | 2501 ft | 172 kts | 121° |
| 2026-04-23 13:50 | 38.04246 | 58.21781 | 2495 ft | 171 kts | 119° |
| 2026-04-23 13:51 | 38.03673 | 58.23054 | 2493 ft | 155 kts | 119° |
| 2026-04-23 13:51 | 38.03176 | 58.24167 | 2331 ft | 133 kts | 118° |
| 2026-04-23 13:51 | 38.02742 | 58.25142 | 2153 ft | 122 kts | 117° |
| 2026-04-23 13:51 | 38.02322 | 58.26089 | 2004 ft | 125 kts | 117° |
| 2026-04-23 13:52 | 38.01895 | 58.27048 | 1846 ft | 124 kts | 116° |
| 2026-04-23 13:52 | 38.01477 | 58.27983 | 1665 ft | 119 kts | 116° |
| 2026-04-23 13:52 | 38.01083 | 58.28902 | 1493 ft | 120 kts | 117° |
| 2026-04-23 13:52 | 38.00692 | 58.29812 | 1349 ft | 117 kts | 119° |
| 2026-04-23 13:53 | 38.00282 | 58.30712 | 1202 ft | 120 kts | 121° |
| 2026-04-23 13:53 | 37.99861 | 58.31647 | 1065 ft | 123 kts | 118° |
| 2026-04-23 13:53 | 37.99407 | 58.32584 | 896 ft | 125 kts | 117° |
| 2026-04-23 13:53 | 37.98989 | 58.33580 | 740 ft | 130 kts | 116° |
| 2026-04-23 13:54 | 37.98594 | 58.34473 | 672 ft | 102 kts | 119° |
| 2026-04-23 13:54 | 37.98310 | 58.35122 | 677 ft | 66 kts | 119° |
| 2026-04-23 13:54 | 37.98184 | 58.35403 | 676 ft | 48 kts | 120° |
| 2026-04-23 13:54 | 37.98038 | 58.35732 | 677 ft | 36 kts | 119° |
| 2026-04-23 13:55 | 37.97930 | 58.35990 | 678 ft | 29 kts | 104° |
| 2026-04-23 13:55 | 37.97911 | 58.36229 | 678 ft | 25 kts | 90° |
| 2026-04-23 13:55 | 37.97912 | 58.36419 | 677 ft | 18 kts | 89° |
| 2026-04-23 13:55 | 37.97945 | 58.36558 | 676 ft | 17 kts | 34° |
| 2026-04-23 13:56 | 37.98044 | 58.36628 | 677 ft | 16 kts | 28° |
| 2026-04-23 13:56 | 37.98168 | 58.36711 | 677 ft | 14 kts | 29° |
| 2026-04-23 13:56 | 37.98224 | 58.36751 | 677 ft | 12 kts | 30° |
| 2026-04-23 13:56 | 37.98263 | 58.36780 | 677 ft | 0 kts | 30° |